sensor_id;sensor_type;location;lat;lon;timestamp;P1;durP1;ratioP1;P2;durP2;ratioP2
57947;SDS011;43754;56.992;24.292;2022-07-29T00:01:59;3.15;;;1.95;;
57947;SDS011;43754;56.992;24.292;2022-07-29T00:04:33;2.03;;;1.30;;
57947;SDS011;43754;56.992;24.292;2022-07-29T00:07:06;3.60;;;1.00;;
57947;SDS011;43754;56.992;24.292;2022-07-29T00:09:38;3.08;;;1.27;;
57947;SDS011;43754;56.992;24.292;2022-07-29T00:12:24;4.57;;;1.65;;
57947;SDS011;43754;56.992;24.292;2022-07-29T00:14:57;2.35;;;0.77;;
57947;SDS011;43754;56.992;24.292;2022-07-29T00:17:29;3.28;;;1.10;;
57947;SDS011;43754;56.992;24.292;2022-07-29T00:20:02;2.03;;;0.80;;
57947;SDS011;43754;56.992;24.292;2022-07-29T00:22:36;4.07;;;0.85;;
57947;SDS011;43754;56.992;24.292;2022-07-29T00:25:08;1.70;;;0.50;;
57947;SDS011;43754;56.992;24.292;2022-07-29T00:27:42;3.42;;;0.60;;
57947;SDS011;43754;56.992;24.292;2022-07-29T00:30:14;2.60;;;0.65;;
57947;SDS011;43754;56.992;24.292;2022-07-29T00:32:46;2.17;;;0.60;;
57947;SDS011;43754;56.992;24.292;2022-07-29T00:35:19;0.95;;;0.68;;
57947;SDS011;43754;56.992;24.292;2022-07-29T00:38:09;1.38;;;0.50;;
57947;SDS011;43754;56.992;24.292;2022-07-29T00:40:42;1.00;;;0.60;;
57947;SDS011;43754;56.992;24.292;2022-07-29T00:43:16;1.48;;;0.60;;
57947;SDS011;43754;56.992;24.292;2022-07-29T00:45:49;1.50;;;0.55;;
57947;SDS011;43754;56.992;24.292;2022-07-29T00:48:21;2.67;;;0.60;;
57947;SDS011;43754;56.992;24.292;2022-07-29T00:50:53;2.70;;;0.60;;
57947;SDS011;43754;56.992;24.292;2022-07-29T00:53:26;1.48;;;0.40;;
57947;SDS011;43754;56.992;24.292;2022-07-29T00:55:59;2.38;;;0.68;;
57947;SDS011;43754;56.992;24.292;2022-07-29T00:58:33;5.60;;;1.00;;
57947;SDS011;43754;56.992;24.292;2022-07-29T01:01:05;1.40;;;0.55;;
57947;SDS011;43754;56.992;24.292;2022-07-29T01:03:38;1.58;;;0.70;;
57947;SDS011;43754;56.992;24.292;2022-07-29T01:06:10;2.63;;;0.50;;
57947;SDS011;43754;56.992;24.292;2022-07-29T01:08:42;1.17;;;0.20;;
57947;SDS011;43754;56.992;24.292;2022-07-29T01:11:15;2.05;;;0.50;;
57947;SDS011;43754;56.992;24.292;2022-07-29T01:13:50;0.88;;;0.40;;
57947;SDS011;43754;56.992;24.292;2022-07-29T01:16:24;2.65;;;0.73;;
57947;SDS011;43754;56.992;24.292;2022-07-29T01:19:04;0.90;;;0.30;;
57947;SDS011;43754;56.992;24.292;2022-07-29T01:21:48;0.70;;;0.50;;
57947;SDS011;43754;56.992;24.292;2022-07-29T01:24:30;3.03;;;0.45;;
57947;SDS011;43754;56.992;24.292;2022-07-29T01:27:15;0.85;;;0.50;;
57947;SDS011;43754;56.992;24.292;2022-07-29T01:30:08;1.58;;;0.40;;
57947;SDS011;43754;56.992;24.292;2022-07-29T01:32:42;3.30;;;0.55;;
57947;SDS011;43754;56.992;24.292;2022-07-29T01:35:22;0.85;;;0.50;;
57947;SDS011;43754;56.992;24.292;2022-07-29T01:37:57;1.02;;;0.40;;
57947;SDS011;43754;56.992;24.292;2022-07-29T01:40:37;1.00;;;0.50;;
57947;SDS011;43754;56.992;24.292;2022-07-29T01:43:16;0.95;;;0.40;;
57947;SDS011;43754;56.992;24.292;2022-07-29T01:45:53;2.75;;;0.57;;
57947;SDS011;43754;56.992;24.292;2022-07-29T01:48:34;2.83;;;0.40;;
57947;SDS011;43754;56.992;24.292;2022-07-29T01:51:14;2.28;;;0.45;;
57947;SDS011;43754;56.992;24.292;2022-07-29T01:53:50;2.15;;;0.40;;
57947;SDS011;43754;56.992;24.292;2022-07-29T01:56:30;1.85;;;0.30;;
57947;SDS011;43754;56.992;24.292;2022-07-29T01:59:05;3.17;;;0.40;;
57947;SDS011;43754;56.992;24.292;2022-07-29T02:01:42;1.13;;;0.45;;
57947;SDS011;43754;56.992;24.292;2022-07-29T02:04:16;0.88;;;0.25;;
57947;SDS011;43754;56.992;24.292;2022-07-29T02:07:00;1.52;;;0.30;;
57947;SDS011;43754;56.992;24.292;2022-07-29T02:09:36;2.45;;;0.45;;
57947;SDS011;43754;56.992;24.292;2022-07-29T02:12:10;1.02;;;0.25;;
57947;SDS011;43754;56.992;24.292;2022-07-29T02:14:45;0.73;;;0.28;;
57947;SDS011;43754;56.992;24.292;2022-07-29T02:17:23;2.22;;;0.40;;
57947;SDS011;43754;56.992;24.292;2022-07-29T02:20:00;2.38;;;0.40;;
57947;SDS011;43754;56.992;24.292;2022-07-29T02:22:35;0.77;;;0.30;;
57947;SDS011;43754;56.992;24.292;2022-07-29T02:25:10;1.38;;;0.47;;
57947;SDS011;43754;56.992;24.292;2022-07-29T02:27:44;0.95;;;0.22;;
57947;SDS011;43754;56.992;24.292;2022-07-29T02:30:18;1.35;;;0.40;;
57947;SDS011;43754;56.992;24.292;2022-07-29T02:32:54;1.17;;;0.30;;
57947;SDS011;43754;56.992;24.292;2022-07-29T02:35:28;1.55;;;0.40;;
57947;SDS011;43754;56.992;24.292;2022-07-29T02:38:05;1.95;;;0.30;;
57947;SDS011;43754;56.992;24.292;2022-07-29T02:41:03;0.93;;;0.25;;
57947;SDS011;43754;56.992;24.292;2022-07-29T02:43:39;5.65;;;0.40;;
57947;SDS011;43754;56.992;24.292;2022-07-29T02:46:16;1.45;;;0.30;;
57947;SDS011;43754;56.992;24.292;2022-07-29T02:49:04;0.55;;;0.30;;
57947;SDS011;43754;56.992;24.292;2022-07-29T02:51:43;1.52;;;0.32;;
57947;SDS011;43754;56.992;24.292;2022-07-29T02:54:21;1.33;;;0.60;;
57947;SDS011;43754;56.992;24.292;2022-07-29T02:59:30;0.85;;;0.40;;
57947;SDS011;43754;56.992;24.292;2022-07-29T03:02:05;4.93;;;0.50;;
57947;SDS011;43754;56.992;24.292;2022-07-29T03:04:42;1.25;;;0.50;;
57947;SDS011;43754;56.992;24.292;2022-07-29T03:07:16;1.67;;;0.65;;
57947;SDS011;43754;56.992;24.292;2022-07-29T03:09:52;7.82;;;3.70;;
57947;SDS011;43754;56.992;24.292;2022-07-29T03:12:26;3.88;;;1.23;;
57947;SDS011;43754;56.992;24.292;2022-07-29T03:14:58;2.58;;;1.63;;
57947;SDS011;43754;56.992;24.292;2022-07-29T03:17:32;2.72;;;1.02;;
57947;SDS011;43754;56.992;24.292;2022-07-29T03:20:07;2.50;;;1.30;;
57947;SDS011;43754;56.992;24.292;2022-07-29T03:22:41;2.17;;;0.60;;
57947;SDS011;43754;56.992;24.292;2022-07-29T03:25:20;3.70;;;1.63;;
57947;SDS011;43754;56.992;24.292;2022-07-29T03:27:52;2.30;;;1.10;;
57947;SDS011;43754;56.992;24.292;2022-07-29T03:30:24;22.70;;;8.50;;
57947;SDS011;43754;56.992;24.292;2022-07-29T03:32:57;6.72;;;2.88;;
57947;SDS011;43754;56.992;24.292;2022-07-29T03:35:31;6.57;;;2.80;;
57947;SDS011;43754;56.992;24.292;2022-07-29T03:38:03;7.30;;;1.23;;
57947;SDS011;43754;56.992;24.292;2022-07-29T03:40:37;1.88;;;1.00;;
57947;SDS011;43754;56.992;24.292;2022-07-29T03:43:12;2.85;;;1.08;;
57947;SDS011;43754;56.992;24.292;2022-07-29T03:45:49;2.40;;;1.10;;
57947;SDS011;43754;56.992;24.292;2022-07-29T03:48:24;2.65;;;0.90;;
57947;SDS011;43754;56.992;24.292;2022-07-29T03:50:59;1.13;;;0.60;;
57947;SDS011;43754;56.992;24.292;2022-07-29T03:53:32;3.55;;;0.60;;
57947;SDS011;43754;56.992;24.292;2022-07-29T03:56:06;2.88;;;0.50;;
57947;SDS011;43754;56.992;24.292;2022-07-29T03:58:40;1.85;;;0.50;;
57947;SDS011;43754;56.992;24.292;2022-07-29T04:01:13;1.95;;;0.30;;
57947;SDS011;43754;56.992;24.292;2022-07-29T04:03:46;1.00;;;0.60;;
57947;SDS011;43754;56.992;24.292;2022-07-29T04:06:20;1.48;;;0.70;;
57947;SDS011;43754;56.992;24.292;2022-07-29T04:08:52;1.55;;;0.40;;
57947;SDS011;43754;56.992;24.292;2022-07-29T04:11:24;1.13;;;0.40;;
57947;SDS011;43754;56.992;24.292;2022-07-29T04:13:57;3.60;;;0.30;;
57947;SDS011;43754;56.992;24.292;2022-07-29T04:16:29;0.30;;;0.10;;
57947;SDS011;43754;56.992;24.292;2022-07-29T04:19:01;0.25;;;0.20;;
57947;SDS011;43754;56.992;24.292;2022-07-29T04:21:37;0.20;;;0.20;;
57947;SDS011;43754;56.992;24.292;2022-07-29T04:24:10;0.43;;;0.30;;
57947;SDS011;43754;56.992;24.292;2022-07-29T04:26:43;2.15;;;0.70;;
57947;SDS011;43754;56.992;24.292;2022-07-29T04:29:16;0.77;;;0.43;;
57947;SDS011;43754;56.992;24.292;2022-07-29T04:31:48;0.75;;;0.40;;
57947;SDS011;43754;56.992;24.292;2022-07-29T04:34:21;0.65;;;0.30;;
57947;SDS011;43754;56.992;24.292;2022-07-29T04:36:59;1.00;;;0.30;;
57947;SDS011;43754;56.992;24.292;2022-07-29T04:39:32;1.42;;;0.40;;
57947;SDS011;43754;56.992;24.292;2022-07-29T04:42:04;0.90;;;0.40;;
57947;SDS011;43754;56.992;24.292;2022-07-29T04:44:39;1.00;;;0.38;;
57947;SDS011;43754;56.992;24.292;2022-07-29T04:47:13;0.50;;;0.20;;
57947;SDS011;43754;56.992;24.292;2022-07-29T04:49:45;1.85;;;0.32;;
57947;SDS011;43754;56.992;24.292;2022-07-29T04:52:19;0.47;;;0.15;;
57947;SDS011;43754;56.992;24.292;2022-07-29T04:54:51;3.60;;;0.32;;
57947;SDS011;43754;56.992;24.292;2022-07-29T04:57:23;0.50;;;0.20;;
57947;SDS011;43754;56.992;24.292;2022-07-29T04:59:55;4.78;;;0.45;;
57947;SDS011;43754;56.992;24.292;2022-07-29T05:02:28;1.15;;;0.30;;
57947;SDS011;43754;56.992;24.292;2022-07-29T05:05:00;2.35;;;0.30;;
57947;SDS011;43754;56.992;24.292;2022-07-29T05:07:33;1.13;;;0.30;;
57947;SDS011;43754;56.992;24.292;2022-07-29T05:10:06;2.00;;;0.20;;
57947;SDS011;43754;56.992;24.292;2022-07-29T05:12:38;1.60;;;0.30;;
57947;SDS011;43754;56.992;24.292;2022-07-29T05:15:10;0.75;;;0.35;;
57947;SDS011;43754;56.992;24.292;2022-07-29T05:17:43;1.73;;;0.38;;
57947;SDS011;43754;56.992;24.292;2022-07-29T05:20:15;1.88;;;0.25;;
57947;SDS011;43754;56.992;24.292;2022-07-29T05:22:49;0.47;;;0.22;;
57947;SDS011;43754;56.992;24.292;2022-07-29T05:25:21;0.93;;;0.30;;
57947;SDS011;43754;56.992;24.292;2022-07-29T05:27:53;1.83;;;0.25;;
57947;SDS011;43754;56.992;24.292;2022-07-29T05:30:25;0.98;;;0.30;;
57947;SDS011;43754;56.992;24.292;2022-07-29T05:32:58;1.52;;;0.28;;
57947;SDS011;43754;56.992;24.292;2022-07-29T05:35:30;2.75;;;0.30;;
57947;SDS011;43754;56.992;24.292;2022-07-29T05:38:03;1.40;;;0.30;;
57947;SDS011;43754;56.992;24.292;2022-07-29T05:40:37;3.05;;;0.30;;
57947;SDS011;43754;56.992;24.292;2022-07-29T05:43:09;0.65;;;0.25;;
57947;SDS011;43754;56.992;24.292;2022-07-29T05:45:42;2.08;;;0.30;;
57947;SDS011;43754;56.992;24.292;2022-07-29T05:48:20;3.35;;;0.50;;
57947;SDS011;43754;56.992;24.292;2022-07-29T05:50:53;5.28;;;0.57;;
57947;SDS011;43754;56.992;24.292;2022-07-29T05:53:27;0.38;;;0.30;;
57947;SDS011;43754;56.992;24.292;2022-07-29T05:56:02;2.95;;;0.20;;
57947;SDS011;43754;56.992;24.292;2022-07-29T05:58:34;0.57;;;0.35;;
57947;SDS011;43754;56.992;24.292;2022-07-29T06:01:07;2.88;;;0.30;;
57947;SDS011;43754;56.992;24.292;2022-07-29T06:03:39;0.57;;;0.20;;
57947;SDS011;43754;56.992;24.292;2022-07-29T06:06:12;0.22;;;0.22;;
57947;SDS011;43754;56.992;24.292;2022-07-29T06:08:46;1.75;;;0.30;;
57947;SDS011;43754;56.992;24.292;2022-07-29T06:11:18;0.57;;;0.20;;
57947;SDS011;43754;56.992;24.292;2022-07-29T06:13:50;1.75;;;0.35;;
57947;SDS011;43754;56.992;24.292;2022-07-29T06:16:22;1.42;;;0.30;;
57947;SDS011;43754;56.992;24.292;2022-07-29T06:19:00;2.83;;;0.30;;
57947;SDS011;43754;56.992;24.292;2022-07-29T06:21:32;0.77;;;0.25;;
57947;SDS011;43754;56.992;24.292;2022-07-29T06:24:11;2.63;;;0.50;;
57947;SDS011;43754;56.992;24.292;2022-07-29T06:26:44;3.17;;;0.20;;
57947;SDS011;43754;56.992;24.292;2022-07-29T06:29:16;0.38;;;0.30;;
57947;SDS011;43754;56.992;24.292;2022-07-29T06:31:48;1.23;;;0.47;;
57947;SDS011;43754;56.992;24.292;2022-07-29T06:34:21;2.17;;;0.20;;
57947;SDS011;43754;56.992;24.292;2022-07-29T06:36:53;1.90;;;0.30;;
57947;SDS011;43754;56.992;24.292;2022-07-29T06:39:28;2.92;;;0.20;;
57947;SDS011;43754;56.992;24.292;2022-07-29T06:42:00;1.17;;;0.30;;
57947;SDS011;43754;56.992;24.292;2022-07-29T06:44:32;5.00;;;0.68;;
57947;SDS011;43754;56.992;24.292;2022-07-29T06:47:07;0.73;;;0.20;;
57947;SDS011;43754;56.992;24.292;2022-07-29T06:49:39;1.50;;;0.20;;
57947;SDS011;43754;56.992;24.292;2022-07-29T06:52:11;0.40;;;0.20;;
57947;SDS011;43754;56.992;24.292;2022-07-29T06:54:45;0.90;;;0.20;;
57947;SDS011;43754;56.992;24.292;2022-07-29T06:57:19;0.30;;;0.20;;
57947;SDS011;43754;56.992;24.292;2022-07-29T06:59:52;1.73;;;0.30;;
57947;SDS011;43754;56.992;24.292;2022-07-29T07:02:24;0.20;;;0.20;;
57947;SDS011;43754;56.992;24.292;2022-07-29T07:04:56;0.95;;;0.20;;
57947;SDS011;43754;56.992;24.292;2022-07-29T07:07:28;1.52;;;0.32;;
57947;SDS011;43754;56.992;24.292;2022-07-29T07:10:01;3.10;;;0.20;;
57947;SDS011;43754;56.992;24.292;2022-07-29T07:12:34;0.95;;;0.20;;
57947;SDS011;43754;56.992;24.292;2022-07-29T07:15:06;0.98;;;0.30;;
57947;SDS011;43754;56.992;24.292;2022-07-29T07:17:38;4.78;;;0.28;;
57947;SDS011;43754;56.992;24.292;2022-07-29T07:20:10;3.03;;;0.32;;
57947;SDS011;43754;56.992;24.292;2022-07-29T07:22:43;0.75;;;0.20;;
57947;SDS011;43754;56.992;24.292;2022-07-29T07:25:17;1.20;;;0.32;;
57947;SDS011;43754;56.992;24.292;2022-07-29T07:27:49;1.02;;;0.40;;
57947;SDS011;43754;56.992;24.292;2022-07-29T07:30:22;0.85;;;0.43;;
57947;SDS011;43754;56.992;24.292;2022-07-29T07:32:54;2.30;;;0.28;;
57947;SDS011;43754;56.992;24.292;2022-07-29T07:35:26;2.03;;;0.20;;
57947;SDS011;43754;56.992;24.292;2022-07-29T07:37:59;0.73;;;0.30;;
57947;SDS011;43754;56.992;24.292;2022-07-29T07:40:33;1.80;;;0.38;;
57947;SDS011;43754;56.992;24.292;2022-07-29T07:43:05;2.45;;;0.20;;
57947;SDS011;43754;56.992;24.292;2022-07-29T07:45:37;0.30;;;0.10;;
57947;SDS011;43754;56.992;24.292;2022-07-29T07:48:10;2.92;;;0.40;;
57947;SDS011;43754;56.992;24.292;2022-07-29T07:50:42;0.28;;;0.10;;
57947;SDS011;43754;56.992;24.292;2022-07-29T07:53:15;2.53;;;0.20;;
57947;SDS011;43754;56.992;24.292;2022-07-29T07:55:48;0.90;;;0.20;;
57947;SDS011;43754;56.992;24.292;2022-07-29T07:58:41;1.08;;;0.10;;
57947;SDS011;43754;56.992;24.292;2022-07-29T08:01:13;1.92;;;0.40;;
57947;SDS011;43754;56.992;24.292;2022-07-29T08:03:45;0.93;;;0.40;;
57947;SDS011;43754;56.992;24.292;2022-07-29T08:06:17;1.98;;;0.30;;
57947;SDS011;43754;56.992;24.292;2022-07-29T08:08:49;2.83;;;0.30;;
57947;SDS011;43754;56.992;24.292;2022-07-29T08:11:23;6.22;;;0.30;;
57947;SDS011;43754;56.992;24.292;2022-07-29T08:13:55;0.50;;;0.30;;
57947;SDS011;43754;56.992;24.292;2022-07-29T08:16:28;2.47;;;0.10;;
57947;SDS011;43754;56.992;24.292;2022-07-29T08:19:00;3.78;;;0.60;;
57947;SDS011;43754;56.992;24.292;2022-07-29T08:21:32;1.52;;;0.17;;
57947;SDS011;43754;56.992;24.292;2022-07-29T08:24:04;0.32;;;0.10;;
57947;SDS011;43754;56.992;24.292;2022-07-29T08:26:57;0.80;;;0.20;;
57947;SDS011;43754;56.992;24.292;2022-07-29T08:29:29;0.50;;;0.22;;
57947;SDS011;43754;56.992;24.292;2022-07-29T08:32:01;1.25;;;0.20;;
57947;SDS011;43754;56.992;24.292;2022-07-29T08:34:34;0.20;;;0.17;;
57947;SDS011;43754;56.992;24.292;2022-07-29T08:37:06;0.93;;;0.20;;
57947;SDS011;43754;56.992;24.292;2022-07-29T08:39:38;1.55;;;0.10;;
57947;SDS011;43754;56.992;24.292;2022-07-29T08:42:11;1.23;;;0.28;;
57947;SDS011;43754;56.992;24.292;2022-07-29T08:44:44;2.13;;;0.93;;
57947;SDS011;43754;56.992;24.292;2022-07-29T08:47:17;6.75;;;3.05;;
57947;SDS011;43754;56.992;24.292;2022-07-29T08:49:49;9.65;;;4.80;;
57947;SDS011;43754;56.992;24.292;2022-07-29T08:52:21;5.00;;;2.92;;
57947;SDS011;43754;56.992;24.292;2022-07-29T08:54:57;15.75;;;6.85;;
57947;SDS011;43754;56.992;24.292;2022-07-29T08:57:31;14.35;;;7.63;;
57947;SDS011;43754;56.992;24.292;2022-07-29T09:00:07;29.10;;;13.45;;
57947;SDS011;43754;56.992;24.292;2022-07-29T09:02:43;31.35;;;15.48;;
57947;SDS011;43754;56.992;24.292;2022-07-29T09:05:19;19.50;;;10.27;;
57947;SDS011;43754;56.992;24.292;2022-07-29T09:07:51;31.38;;;17.98;;
57947;SDS011;43754;56.992;24.292;2022-07-29T09:10:24;34.72;;;17.40;;
57947;SDS011;43754;56.992;24.292;2022-07-29T09:12:58;9.15;;;5.60;;
57947;SDS011;43754;56.992;24.292;2022-07-29T09:15:30;18.00;;;10.27;;
57947;SDS011;43754;56.992;24.292;2022-07-29T09:18:02;12.25;;;7.82;;
57947;SDS011;43754;56.992;24.292;2022-07-29T09:20:34;17.55;;;10.65;;
57947;SDS011;43754;56.992;24.292;2022-07-29T09:23:25;9.82;;;4.25;;
57947;SDS011;43754;56.992;24.292;2022-07-29T09:25:57;1.35;;;0.75;;
57947;SDS011;43754;56.992;24.292;2022-07-29T09:28:39;8.75;;;4.43;;
57947;SDS011;43754;56.992;24.292;2022-07-29T09:31:13;13.80;;;6.22;;
57947;SDS011;43754;56.992;24.292;2022-07-29T09:33:45;14.43;;;7.85;;
57947;SDS011;43754;56.992;24.292;2022-07-29T09:36:18;18.75;;;11.10;;
57947;SDS011;43754;56.992;24.292;2022-07-29T09:38:56;10.85;;;5.55;;
57947;SDS011;43754;56.992;24.292;2022-07-29T09:41:29;10.60;;;5.63;;
57947;SDS011;43754;56.992;24.292;2022-07-29T09:44:16;0.98;;;0.65;;
57947;SDS011;43754;56.992;24.292;2022-07-29T09:46:56;10.43;;;5.78;;
57947;SDS011;43754;56.992;24.292;2022-07-29T09:49:30;2.58;;;1.42;;
57947;SDS011;43754;56.992;24.292;2022-07-29T09:52:03;2.88;;;1.60;;
57947;SDS011;43754;56.992;24.292;2022-07-29T09:54:37;12.32;;;6.93;;
57947;SDS011;43754;56.992;24.292;2022-07-29T09:57:21;15.45;;;5.05;;
57947;SDS011;43754;56.992;24.292;2022-07-29T10:00:03;4.18;;;1.88;;
57947;SDS011;43754;56.992;24.292;2022-07-29T10:02:45;6.25;;;3.95;;
57947;SDS011;43754;56.992;24.292;2022-07-29T10:05:19;11.05;;;4.38;;
57947;SDS011;43754;56.992;24.292;2022-07-29T10:07:53;3.22;;;2.00;;
57947;SDS011;43754;56.992;24.292;2022-07-29T10:10:28;5.50;;;4.05;;
57947;SDS011;43754;56.992;24.292;2022-07-29T10:13:02;1.05;;;0.70;;
57947;SDS011;43754;56.992;24.292;2022-07-29T10:15:44;1.67;;;1.02;;
57947;SDS011;43754;56.992;24.292;2022-07-29T10:18:17;1.67;;;0.85;;
57947;SDS011;43754;56.992;24.292;2022-07-29T10:20:51;6.55;;;2.50;;
57947;SDS011;43754;56.992;24.292;2022-07-29T10:23:24;2.13;;;1.50;;
57947;SDS011;43754;56.992;24.292;2022-07-29T10:25:56;9.45;;;1.65;;
57947;SDS011;43754;56.992;24.292;2022-07-29T10:28:29;2.50;;;1.10;;
57947;SDS011;43754;56.992;24.292;2022-07-29T10:31:04;8.68;;;2.35;;
57947;SDS011;43754;56.992;24.292;2022-07-29T10:33:41;6.45;;;0.90;;
57947;SDS011;43754;56.992;24.292;2022-07-29T10:36:35;2.58;;;1.20;;
57947;SDS011;43754;56.992;24.292;2022-07-29T10:39:19;1.25;;;0.60;;
57947;SDS011;43754;56.992;24.292;2022-07-29T10:42:17;3.10;;;1.53;;
57947;SDS011;43754;56.992;24.292;2022-07-29T10:45:05;1.90;;;1.10;;
57947;SDS011;43754;56.992;24.292;2022-07-29T10:47:39;0.77;;;0.32;;
57947;SDS011;43754;56.992;24.292;2022-07-29T10:50:11;5.60;;;1.08;;
57947;SDS011;43754;56.992;24.292;2022-07-29T10:52:54;2.80;;;0.70;;
57947;SDS011;43754;56.992;24.292;2022-07-29T10:55:34;1.42;;;0.50;;
57947;SDS011;43754;56.992;24.292;2022-07-29T10:58:14;1.23;;;0.68;;
57947;SDS011;43754;56.992;24.292;2022-07-29T11:00:48;0.85;;;0.20;;
57947;SDS011;43754;56.992;24.292;2022-07-29T11:06:20;2.10;;;0.20;;
57947;SDS011;43754;56.992;24.292;2022-07-29T11:09:16;2.28;;;0.40;;
57947;SDS011;43754;56.992;24.292;2022-07-29T11:11:56;1.55;;;0.47;;
57947;SDS011;43754;56.992;24.292;2022-07-29T11:17:43;5.90;;;0.93;;
57947;SDS011;43754;56.992;24.292;2022-07-29T11:20:38;3.03;;;0.77;;
57947;SDS011;43754;56.992;24.292;2022-07-29T11:23:20;4.70;;;3.85;;
57947;SDS011;43754;56.992;24.292;2022-07-29T11:26:15;1.83;;;0.65;;
57947;SDS011;43754;56.992;24.292;2022-07-29T11:28:54;1.05;;;0.50;;
57947;SDS011;43754;56.992;24.292;2022-07-29T11:31:32;1.58;;;0.68;;
57947;SDS011;43754;56.992;24.292;2022-07-29T11:34:16;0.10;;;0.03;;
57947;SDS011;43754;56.992;24.292;2022-07-29T11:40:08;1.33;;;0.52;;
57947;SDS011;43754;56.992;24.292;2022-07-29T11:42:49;3.55;;;0.73;;
57947;SDS011;43754;56.992;24.292;2022-07-29T11:45:24;2.10;;;1.40;;
57947;SDS011;43754;56.992;24.292;2022-07-29T11:48:16;2.92;;;0.90;;
57947;SDS011;43754;56.992;24.292;2022-07-29T11:51:02;1.50;;;0.98;;
57947;SDS011;43754;56.992;24.292;2022-07-29T11:53:42;0.90;;;0.70;;
57947;SDS011;43754;56.992;24.292;2022-07-29T11:56:23;1.10;;;0.77;;
57947;SDS011;43754;56.992;24.292;2022-07-29T11:59:02;1.67;;;0.65;;
57947;SDS011;43754;56.992;24.292;2022-07-29T12:01:51;1.50;;;0.85;;
57947;SDS011;43754;56.992;24.292;2022-07-29T12:04:49;11.80;;;6.93;;
57947;SDS011;43754;56.992;24.292;2022-07-29T12:07:26;9.20;;;8.25;;
57947;SDS011;43754;56.992;24.292;2022-07-29T12:10:08;0.73;;;0.43;;
57947;SDS011;43754;56.992;24.292;2022-07-29T12:12:42;0.95;;;0.43;;
57947;SDS011;43754;56.992;24.292;2022-07-29T12:15:14;4.22;;;1.77;;
57947;SDS011;43754;56.992;24.292;2022-07-29T12:17:50;1.40;;;0.80;;
57947;SDS011;43754;56.992;24.292;2022-07-29T12:20:24;2.08;;;0.40;;
57947;SDS011;43754;56.992;24.292;2022-07-29T12:22:57;0.98;;;0.32;;
57947;SDS011;43754;56.992;24.292;2022-07-29T12:25:38;0.85;;;0.10;;
57947;SDS011;43754;56.992;24.292;2022-07-29T12:28:12;1.00;;;0.50;;
57947;SDS011;43754;56.992;24.292;2022-07-29T12:30:58;0.85;;;0.70;;
57947;SDS011;43754;56.992;24.292;2022-07-29T12:33:32;1.88;;;0.80;;
57947;SDS011;43754;56.992;24.292;2022-07-29T12:36:06;0.82;;;0.50;;
57947;SDS011;43754;56.992;24.292;2022-07-29T12:38:48;0.10;;;0.10;;
57947;SDS011;43754;56.992;24.292;2022-07-29T12:41:28;0.75;;;0.20;;
57947;SDS011;43754;56.992;24.292;2022-07-29T12:44:01;2.20;;;0.30;;
57947;SDS011;43754;56.992;24.292;2022-07-29T12:46:41;1.65;;;0.30;;
57947;SDS011;43754;56.992;24.292;2022-07-29T12:49:20;2.20;;;0.93;;
57947;SDS011;43754;56.992;24.292;2022-07-29T12:51:53;0.55;;;0.20;;
57947;SDS011;43754;56.992;24.292;2022-07-29T12:54:26;3.85;;;0.85;;
57947;SDS011;43754;56.992;24.292;2022-07-29T12:56:59;5.07;;;0.43;;
57947;SDS011;43754;56.992;24.292;2022-07-29T12:59:31;1.48;;;0.50;;
57947;SDS011;43754;56.992;24.292;2022-07-29T13:02:04;4.93;;;1.38;;
57947;SDS011;43754;56.992;24.292;2022-07-29T13:04:36;5.70;;;2.13;;
57947;SDS011;43754;56.992;24.292;2022-07-29T13:07:08;4.13;;;1.02;;
57947;SDS011;43754;56.992;24.292;2022-07-29T13:09:45;1.63;;;1.05;;
57947;SDS011;43754;56.992;24.292;2022-07-29T13:12:18;2.00;;;1.02;;
57947;SDS011;43754;56.992;24.292;2022-07-29T13:15:13;4.13;;;1.20;;
57947;SDS011;43754;56.992;24.292;2022-07-29T13:17:46;5.40;;;1.30;;
57947;SDS011;43754;56.992;24.292;2022-07-29T13:20:18;1.60;;;1.20;;
57947;SDS011;43754;56.992;24.292;2022-07-29T13:22:55;0.90;;;0.63;;
57947;SDS011;43754;56.992;24.292;2022-07-29T13:25:28;2.58;;;0.77;;
57947;SDS011;43754;56.992;24.292;2022-07-29T13:28:01;1.33;;;0.70;;
57947;SDS011;43754;56.992;24.292;2022-07-29T13:30:35;0.68;;;0.35;;
57947;SDS011;43754;56.992;24.292;2022-07-29T13:33:15;1.90;;;0.82;;
57947;SDS011;43754;56.992;24.292;2022-07-29T13:35:47;1.75;;;0.43;;
57947;SDS011;43754;56.992;24.292;2022-07-29T13:38:19;2.95;;;0.60;;
57947;SDS011;43754;56.992;24.292;2022-07-29T13:40:51;1.05;;;0.60;;
57947;SDS011;43754;56.992;24.292;2022-07-29T13:43:23;2.47;;;0.90;;
57947;SDS011;43754;56.992;24.292;2022-07-29T13:45:57;3.00;;;0.73;;
57947;SDS011;43754;56.992;24.292;2022-07-29T13:48:29;1.75;;;0.55;;
57947;SDS011;43754;56.992;24.292;2022-07-29T13:51:01;1.52;;;0.63;;
57947;SDS011;43754;56.992;24.292;2022-07-29T13:53:33;0.70;;;0.50;;
57947;SDS011;43754;56.992;24.292;2022-07-29T13:56:05;1.05;;;0.20;;
57947;SDS011;43754;56.992;24.292;2022-07-29T13:58:37;0.70;;;0.35;;
57947;SDS011;43754;56.992;24.292;2022-07-29T14:01:11;1.73;;;0.50;;
57947;SDS011;43754;56.992;24.292;2022-07-29T14:03:44;5.90;;;0.68;;
57947;SDS011;43754;56.992;24.292;2022-07-29T14:06:16;3.28;;;0.45;;
57947;SDS011;43754;56.992;24.292;2022-07-29T14:08:48;2.45;;;0.60;;
57947;SDS011;43754;56.992;24.292;2022-07-29T14:11:20;1.10;;;0.40;;
57947;SDS011;43754;56.992;24.292;2022-07-29T14:13:52;1.25;;;0.38;;
57947;SDS011;43754;56.992;24.292;2022-07-29T14:16:26;4.65;;;0.57;;
57947;SDS011;43754;56.992;24.292;2022-07-29T14:18:58;1.05;;;0.63;;
57947;SDS011;43754;56.992;24.292;2022-07-29T14:21:30;0.55;;;0.38;;
57947;SDS011;43754;56.992;24.292;2022-07-29T14:24:05;0.73;;;0.47;;
57947;SDS011;43754;56.992;24.292;2022-07-29T14:26:48;3.67;;;0.40;;
57947;SDS011;43754;56.992;24.292;2022-07-29T14:29:20;4.38;;;0.70;;
57947;SDS011;43754;56.992;24.292;2022-07-29T14:31:54;2.47;;;0.77;;
57947;SDS011;43754;56.992;24.292;2022-07-29T14:34:27;1.33;;;0.50;;
57947;SDS011;43754;56.992;24.292;2022-07-29T14:36:59;2.30;;;0.57;;
57947;SDS011;43754;56.992;24.292;2022-07-29T14:39:31;0.70;;;0.40;;
57947;SDS011;43754;56.992;24.292;2022-07-29T14:42:04;0.55;;;0.30;;
57947;SDS011;43754;56.992;24.292;2022-07-29T14:44:36;2.45;;;2.25;;
57947;SDS011;43754;56.992;24.292;2022-07-29T14:47:09;2.50;;;0.20;;
57947;SDS011;43754;56.992;24.292;2022-07-29T14:49:41;2.20;;;1.50;;
57947;SDS011;43754;56.992;24.292;2022-07-29T14:52:13;4.35;;;3.22;;
57947;SDS011;43754;56.992;24.292;2022-07-29T14:54:46;34.05;;;21.92;;
57947;SDS011;43754;56.992;24.292;2022-07-29T14:57:18;16.92;;;10.90;;
57947;SDS011;43754;56.992;24.292;2022-07-29T14:59:50;29.50;;;19.58;;
57947;SDS011;43754;56.992;24.292;2022-07-29T15:02:23;20.65;;;13.57;;
57947;SDS011;43754;56.992;24.292;2022-07-29T15:05:16;22.30;;;12.60;;
57947;SDS011;43754;56.992;24.292;2022-07-29T15:07:48;8.93;;;2.65;;
57947;SDS011;43754;56.992;24.292;2022-07-29T15:10:20;7.57;;;2.92;;
57947;SDS011;43754;56.992;24.292;2022-07-29T15:12:55;6.57;;;4.40;;
57947;SDS011;43754;56.992;24.292;2022-07-29T15:15:27;10.27;;;6.65;;
57947;SDS011;43754;56.992;24.292;2022-07-29T15:18:01;3.97;;;2.58;;
57947;SDS011;43754;56.992;24.292;2022-07-29T15:20:33;7.50;;;4.47;;
57947;SDS011;43754;56.992;24.292;2022-07-29T15:23:06;7.13;;;4.75;;
57947;SDS011;43754;56.992;24.292;2022-07-29T15:25:40;2.88;;;2.22;;
57947;SDS011;43754;56.992;24.292;2022-07-29T15:28:13;5.65;;;3.25;;
57947;SDS011;43754;56.992;24.292;2022-07-29T15:30:45;4.63;;;1.33;;
57947;SDS011;43754;56.992;24.292;2022-07-29T15:33:18;1.23;;;0.77;;